createdAt,value
2022-12-18T00:01:34.945Z,-2.85
2022-12-18T00:04:09.445Z,-2.83
2022-12-18T00:06:38.933Z,-2.93
2022-12-18T00:09:07.125Z,-2.95
2022-12-18T00:11:35.369Z,-3.02
2022-12-18T00:14:03.473Z,-3.00
2022-12-18T00:16:33.978Z,-3.07
2022-12-18T00:21:56.375Z,-3.06
2022-12-18T00:24:24.500Z,-3.09
2022-12-18T00:26:52.547Z,-3.19
2022-12-18T00:29:21.056Z,-3.13
2022-12-18T00:31:49.930Z,-3.16
2022-12-18T00:34:18.443Z,-3.17
2022-12-18T00:36:49.326Z,-3.22
2022-12-18T00:39:18.711Z,-3.27
2022-12-18T00:42:04.547Z,-3.33
2022-12-18T00:44:33.247Z,-3.28
2022-12-18T00:47:01.337Z,-3.27
2022-12-18T00:49:29.382Z,-3.35
2022-12-18T00:51:57.437Z,-3.43
2022-12-18T00:54:27.243Z,-3.40
2022-12-18T00:56:56.113Z,-3.41
2022-12-18T00:59:24.226Z,-3.45
2022-12-18T01:01:52.603Z,-3.43
2022-12-18T01:04:22.166Z,-3.38
2022-12-18T01:06:51.150Z,-3.48
2022-12-18T01:09:19.329Z,-3.52
2022-12-18T01:11:48.701Z,-3.47
2022-12-18T01:14:16.883Z,-3.46
2022-12-18T01:16:45.011Z,-3.46
2022-12-18T01:19:13.563Z,-3.43
2022-12-18T01:21:41.634Z,-3.31
2022-12-18T01:24:09.832Z,-3.36
2022-12-18T01:26:37.945Z,-3.29
2022-12-18T01:29:07.462Z,-3.24
2022-12-18T01:31:36.283Z,-3.23
2022-12-18T01:36:59.324Z,-3.14
2022-12-18T01:39:27.814Z,-3.16
2022-12-18T01:42:05.338Z,-3.26
2022-12-18T01:45:00.047Z,-3.40
2022-12-18T01:47:34.258Z,-3.36
2022-12-18T01:50:06.327Z,-3.45
2022-12-18T01:52:35.691Z,-3.51
2022-12-18T01:55:06.987Z,-3.41
2022-12-18T01:57:37.649Z,-3.35
2022-12-18T02:00:11.473Z,-3.33
2022-12-18T02:02:44.992Z,-3.31
2022-12-18T02:05:18.460Z,-3.19
2022-12-18T02:08:00.322Z,-3.02
2022-12-18T02:10:34.277Z,-3.04
2022-12-18T02:13:10.565Z,-3.05
2022-12-18T02:15:48.877Z,-2.99
2022-12-18T02:18:21.806Z,-3.01
2022-12-18T02:20:57.892Z,-2.94
2022-12-18T02:23:45.574Z,-2.99
2022-12-18T02:26:21.237Z,-3.03
2022-12-18T02:28:56.858Z,-2.99
2022-12-18T02:31:29.403Z,-2.97
2022-12-18T02:34:04.339Z,-3.12
2022-12-18T02:36:41.375Z,-3.19
2022-12-18T02:39:14.318Z,-3.23
2022-12-18T02:41:52.615Z,-3.16
2022-12-18T02:44:22.235Z,-3.22
2022-12-18T02:46:53.761Z,-3.20
2022-12-18T02:49:36.914Z,-3.20
2022-12-18T02:52:37.004Z,-3.15
2022-12-18T02:58:57.783Z,-3.09
2022-12-18T03:01:41.142Z,-2.99
2022-12-18T03:04:16.995Z,-3.02
2022-12-18T03:06:49.542Z,-3.03
2022-12-18T03:09:23.244Z,-2.90
2022-12-18T03:12:18.147Z,-2.93
2022-12-18T03:14:51.993Z,-2.95
2022-12-18T03:17:24.206Z,-2.97
2022-12-18T03:19:55.387Z,-3.14
2022-12-18T03:22:26.275Z,-3.15
2022-12-18T03:24:58.008Z,-3.21
2022-12-18T03:27:28.172Z,-3.25
2022-12-18T03:30:08.385Z,-3.32
2022-12-18T03:32:45.119Z,-3.31
2022-12-18T03:35:18.503Z,-3.39
2022-12-18T03:37:46.853Z,-3.41
2022-12-18T03:40:15.261Z,-3.35
2022-12-18T03:42:51.252Z,-3.38
2022-12-18T03:45:29.305Z,-3.26
2022-12-18T03:48:06.239Z,-3.24
2022-12-18T03:50:47.326Z,-3.15
2022-12-18T03:53:28.458Z,-3.05
2022-12-18T03:55:58.884Z,-3.16
2022-12-18T03:58:34.908Z,-3.15
2022-12-18T04:01:18.496Z,-3.12
2022-12-18T04:03:50.469Z,-3.13
2022-12-18T04:06:21.033Z,-3.11
2022-12-18T04:08:49.783Z,-3.11
2022-12-18T04:11:22.344Z,-3.18
2022-12-18T04:13:50.514Z,-3.19
2022-12-18T04:16:26.274Z,-3.22
2022-12-18T04:18:57.764Z,-3.20
2022-12-18T04:21:27.551Z,-3.21
2022-12-18T04:23:55.696Z,-3.11
2022-12-18T04:26:25.158Z,-3.07
2022-12-18T04:29:03.069Z,-3.05
2022-12-18T04:31:32.759Z,-3.09
2022-12-18T04:34:01.051Z,-3.08
2022-12-18T04:36:29.919Z,-3.26
2022-12-18T04:38:58.012Z,-3.27
2022-12-18T04:41:26.669Z,-3.22
2022-12-18T04:43:55.801Z,-3.18
2022-12-18T04:46:23.918Z,-3.14
2022-12-18T04:48:53.353Z,-3.16
2022-12-18T04:51:26.433Z,-3.23
2022-12-18T04:53:55.297Z,-3.22
2022-12-18T04:56:23.892Z,-3.19
2022-12-18T04:58:52.034Z,-3.22
2022-12-18T05:01:20.817Z,-3.12
2022-12-18T05:03:49.064Z,-3.02
2022-12-18T05:06:18.601Z,-3.00
2022-12-18T05:08:46.716Z,-2.96
2022-12-18T05:11:17.519Z,-2.89
2022-12-18T05:13:46.157Z,-2.93
2022-12-18T05:16:15.950Z,-2.89
2022-12-18T05:18:44.795Z,-2.90
2022-12-18T05:21:12.942Z,-2.78
2022-12-18T05:23:42.912Z,-2.80
2022-12-18T05:26:18.538Z,-2.93
2022-12-18T05:28:46.840Z,-2.84
2022-12-18T05:31:15.106Z,-2.68
2022-12-18T05:33:43.895Z,-2.63
2022-12-18T05:36:13.060Z,-2.45
2022-12-18T05:38:43.343Z,-2.43
2022-12-18T05:41:12.054Z,-2.53
2022-12-18T05:43:42.098Z,-2.48
2022-12-18T05:46:14.930Z,-2.45
2022-12-18T05:48:43.106Z,-2.33
2022-12-18T05:51:13.866Z,-2.26
2022-12-18T05:53:44.548Z,-2.36
2022-12-18T05:56:15.609Z,-2.24
2022-12-18T05:58:43.855Z,-2.20
2022-12-18T06:01:16.008Z,-2.16
2022-12-18T06:03:44.956Z,-2.07
2022-12-18T06:06:18.862Z,-2.14
2022-12-18T06:08:48.658Z,-2.13
2022-12-18T06:11:21.095Z,-2.06
2022-12-18T06:13:57.859Z,-1.98
2022-12-18T06:16:27.220Z,-1.92
2022-12-18T06:18:57.605Z,-1.98
2022-12-18T06:21:25.780Z,-1.92
2022-12-18T06:23:55.166Z,-2.03
2022-12-18T06:26:28.054Z,-2.00
2022-12-18T06:28:56.908Z,-1.98
2022-12-18T06:31:25.793Z,-1.97
2022-12-18T06:33:54.091Z,-1.95
2022-12-18T06:36:22.646Z,-1.94
2022-12-18T06:38:50.911Z,-1.97
2022-12-18T06:41:23.041Z,-2.00
2022-12-18T06:43:53.546Z,-1.97
2022-12-18T06:46:23.793Z,-1.91
2022-12-18T06:48:53.724Z,-2.01
2022-12-18T06:51:23.570Z,-1.90
2022-12-18T06:53:52.061Z,-1.90
2022-12-18T06:56:21.621Z,-1.88
2022-12-18T06:58:52.945Z,-1.92
2022-12-18T07:01:21.231Z,-1.98
2022-12-18T07:03:53.285Z,-1.97
2022-12-18T07:06:25.200Z,-1.86
2022-12-18T07:08:55.256Z,-1.95
2022-12-18T07:11:24.790Z,-1.86
2022-12-18T07:13:54.663Z,-2.02
2022-12-18T07:16:25.575Z,-1.92
2022-12-18T07:18:54.581Z,-1.96
2022-12-18T07:21:23.762Z,-1.98
2022-12-18T07:23:52.253Z,-2.12
2022-12-18T07:26:22.809Z,-2.15
2022-12-18T07:28:52.746Z,-2.20
2022-12-18T07:31:23.585Z,-2.10
2022-12-18T07:33:53.002Z,-2.16
2022-12-18T07:36:25.106Z,-2.25
2022-12-18T07:38:53.914Z,-2.08
2022-12-18T07:41:22.671Z,-2.15
2022-12-18T07:43:52.168Z,-2.18
2022-12-18T07:46:20.581Z,-2.09
2022-12-18T07:48:49.797Z,-1.99
2022-12-18T07:51:19.520Z,-1.92
2022-12-18T07:53:49.756Z,-1.77
2022-12-18T07:56:29.622Z,-1.79
2022-12-18T07:59:01.255Z,-1.66
2022-12-18T08:01:29.676Z,-1.54
2022-12-18T08:03:59.044Z,-1.45
2022-12-18T08:06:27.541Z,-1.40
2022-12-18T08:08:56.688Z,-1.32
2022-12-18T08:11:26.910Z,-1.32
2022-12-18T08:13:55.342Z,-1.30
2022-12-18T08:16:26.169Z,-1.30
2022-12-18T08:18:55.700Z,-1.18
2022-12-18T08:21:27.241Z,-1.18
2022-12-18T08:23:57.596Z,-1.17
2022-12-18T08:26:27.879Z,-1.25
2022-12-18T08:28:56.679Z,-1.21
2022-12-18T08:31:27.928Z,-1.19
2022-12-18T08:33:56.690Z,-1.12
2022-12-18T08:36:25.488Z,-1.09
2022-12-18T08:38:54.674Z,-1.11
2022-12-18T08:41:23.467Z,-1.09
2022-12-18T08:44:09.335Z,-1.11
2022-12-18T08:46:41.643Z,-1.09
2022-12-18T08:49:11.103Z,-1.11
2022-12-18T08:51:39.970Z,-1.16
2022-12-18T08:54:08.825Z,-1.07
2022-12-18T08:56:37.101Z,-0.92
2022-12-18T08:59:05.857Z,-0.82
2022-12-18T09:01:36.605Z,-0.73
2022-12-18T09:04:07.602Z,-0.65
2022-12-18T09:06:36.578Z,-0.54
2022-12-18T09:09:06.565Z,-0.53
2022-12-18T09:11:36.189Z,-0.41
2022-12-18T09:14:04.402Z,-0.32
2022-12-18T09:16:35.765Z,-0.25
2022-12-18T09:19:06.665Z,-0.14
2022-12-18T09:21:37.395Z,-0.03
2022-12-18T09:24:09.134Z,0.03
2022-12-18T09:26:37.736Z,0.09
2022-12-18T09:29:08.009Z,0.20
2022-12-18T09:31:36.911Z,0.31
2022-12-18T09:34:11.632Z,0.33
2022-12-18T09:36:40.339Z,0.39
2022-12-18T09:39:09.067Z,0.50
2022-12-18T09:41:47.813Z,0.50
2022-12-18T09:44:32.518Z,0.53
2022-12-18T09:47:12.763Z,0.64
2022-12-18T09:49:45.876Z,0.74
2022-12-18T09:52:21.525Z,0.85
2022-12-18T09:54:55.522Z,0.94
2022-12-18T09:57:26.526Z,1.01
2022-12-18T09:59:59.011Z,1.07
2022-12-18T10:02:32.155Z,1.12
2022-12-18T10:05:09.897Z,1.13
2022-12-18T10:07:57.375Z,1.22
2022-12-18T10:10:44.957Z,1.26
2022-12-18T10:13:26.962Z,1.32
2022-12-18T10:16:10.648Z,1.38
2022-12-18T10:19:03.568Z,1.41
2022-12-18T10:21:43.382Z,1.31
2022-12-18T10:24:25.594Z,1.38
2022-12-18T10:26:57.745Z,1.50
2022-12-18T10:29:27.646Z,1.49
2022-12-18T10:31:55.685Z,1.52
2022-12-18T10:34:23.708Z,1.69
2022-12-18T10:36:53.546Z,1.77
2022-12-18T10:39:24.249Z,1.74
2022-12-18T10:41:52.660Z,1.80
2022-12-18T10:44:23.405Z,1.84
2022-12-18T10:46:56.931Z,1.90
2022-12-18T10:49:28.077Z,1.97
2022-12-18T10:52:16.035Z,2.11
2022-12-18T10:54:53.394Z,2.16
2022-12-18T10:57:36.615Z,2.08
2022-12-18T11:00:26.793Z,2.15
2022-12-18T11:02:56.616Z,2.21
2022-12-18T11:05:30.032Z,2.31
2022-12-18T11:08:00.646Z,2.27
2022-12-18T11:10:34.001Z,2.33
2022-12-18T11:13:18.681Z,2.34
2022-12-18T11:15:47.974Z,2.38
2022-12-18T11:18:23.907Z,2.43
2022-12-18T11:20:58.950Z,2.38
2022-12-18T11:23:29.629Z,2.49
2022-12-18T11:26:01.417Z,2.55
2022-12-18T11:28:37.762Z,2.63
2022-12-18T11:31:24.330Z,2.72
2022-12-18T11:34:27.945Z,2.73
2022-12-18T11:36:55.280Z,2.77
2022-12-18T11:39:40.195Z,2.83
2022-12-18T11:42:16.390Z,2.88
2022-12-18T11:44:50.704Z,2.91
2022-12-18T11:47:31.239Z,2.92
2022-12-18T11:50:04.102Z,2.88
2022-12-18T11:52:38.167Z,2.95
2022-12-18T11:55:16.125Z,2.96
2022-12-18T11:57:55.126Z,3.01
2022-12-18T12:00:24.515Z,3.03
2022-12-18T12:03:24.414Z,3.07
2022-12-18T12:06:10.069Z,3.06
2022-12-18T12:08:58.298Z,3.04
2022-12-18T12:11:38.863Z,3.06
2022-12-18T12:14:25.425Z,3.03
2022-12-18T12:16:59.272Z,3.09
2022-12-18T12:19:40.248Z,3.08
2022-12-18T12:22:19.603Z,2.95
2022-12-18T12:25:04.670Z,3.02
2022-12-18T12:27:45.003Z,2.91
2022-12-18T12:30:21.782Z,2.82
2022-12-18T12:33:09.663Z,2.88
2022-12-18T12:35:51.160Z,2.87
2022-12-18T12:38:26.273Z,2.86
2022-12-18T12:41:03.218Z,2.90
2022-12-18T12:43:46.248Z,2.91
2022-12-18T12:46:22.705Z,2.96
2022-12-18T12:48:54.989Z,2.96
2022-12-18T12:51:26.984Z,2.92
2022-12-18T12:53:58.409Z,2.87
2022-12-18T12:56:40.651Z,2.87
2022-12-18T12:59:19.132Z,2.89
2022-12-18T13:01:56.825Z,2.91
2022-12-18T13:07:37.912Z,3.00
2022-12-18T13:10:33.037Z,3.00
2022-12-18T13:13:02.750Z,2.96
2022-12-18T13:15:40.262Z,2.96
2022-12-18T13:18:21.721Z,3.00
2022-12-18T13:20:56.433Z,2.95
2022-12-18T13:23:37.281Z,2.95
2022-12-18T13:26:35.115Z,2.97
2022-12-18T13:29:05.288Z,2.97
2022-12-18T13:32:23.344Z,3.01
2022-12-18T13:35:43.250Z,3.08
2022-12-18T13:38:24.069Z,3.08
2022-12-18T13:40:58.376Z,3.09
2022-12-18T13:43:38.010Z,3.18
2022-12-18T13:46:23.614Z,3.11
2022-12-18T13:49:01.232Z,3.06
2022-12-18T13:51:31.701Z,3.09
2022-12-18T13:54:03.283Z,3.09
2022-12-18T13:56:34.369Z,3.13
2022-12-18T13:59:14.829Z,3.10
2022-12-18T14:01:49.826Z,3.09
2022-12-18T14:04:31.426Z,3.13
2022-12-18T14:07:05.603Z,3.14
2022-12-18T14:09:40.539Z,3.11
2022-12-18T14:12:36.766Z,3.05
2022-12-18T14:15:15.264Z,3.05
2022-12-18T14:17:44.882Z,3.05
2022-12-18T14:20:17.797Z,3.11
2022-12-18T14:22:47.613Z,3.08
2022-12-18T14:25:23.086Z,3.07
2022-12-18T14:27:55.680Z,3.05
2022-12-18T14:30:32.892Z,3.04
2022-12-18T14:33:06.162Z,3.00
2022-12-18T14:35:38.561Z,3.03
2022-12-18T14:38:27.617Z,2.92
2022-12-18T14:40:58.740Z,2.96
2022-12-18T14:43:27.892Z,2.92
2022-12-18T14:45:57.007Z,2.90
2022-12-18T14:48:38.586Z,2.86
2022-12-18T14:51:18.558Z,2.80
2022-12-18T14:53:54.316Z,2.83
2022-12-18T14:56:25.948Z,2.82
2022-12-18T14:58:57.851Z,2.78
2022-12-18T15:01:32.574Z,2.76
2022-12-18T15:04:08.191Z,2.74
2022-12-18T15:06:40.813Z,2.77
2022-12-18T15:09:25.693Z,2.75
2022-12-18T15:11:59.645Z,2.67
2022-12-18T15:14:37.688Z,2.55
2022-12-18T15:17:08.786Z,2.62
2022-12-18T15:19:42.434Z,2.53
2022-12-18T15:22:23.755Z,2.46
2022-12-18T15:24:52.319Z,2.38
2022-12-18T15:27:27.865Z,2.39
2022-12-18T15:30:26.012Z,2.37
2022-12-18T15:33:14.856Z,2.24
2022-12-18T15:35:46.923Z,2.25
2022-12-18T15:38:17.205Z,2.23
2022-12-18T15:40:45.260Z,2.16
2022-12-18T15:43:30.979Z,2.10
2022-12-18T15:45:59.062Z,2.14
2022-12-18T15:48:27.153Z,2.11
2022-12-18T15:50:59.456Z,2.08
2022-12-18T15:53:34.583Z,2.09
2022-12-18T15:56:20.394Z,2.09
2022-12-18T15:58:48.676Z,1.96
2022-12-18T16:01:18.146Z,1.98
2022-12-18T16:03:46.568Z,2.05
2022-12-18T16:06:14.636Z,2.07
2022-12-18T16:08:44.045Z,2.07
2022-12-18T16:11:39.197Z,2.04
2022-12-18T16:14:17.584Z,1.98
2022-12-18T16:16:46.431Z,2.03
2022-12-18T16:19:14.513Z,2.02
2022-12-18T16:21:42.673Z,1.93
2022-12-18T16:24:21.553Z,1.91
2022-12-18T16:26:52.180Z,1.93
2022-12-18T16:29:27.742Z,1.94
2022-12-18T16:31:56.219Z,1.97
2022-12-18T16:34:28.571Z,1.95
2022-12-18T16:37:04.646Z,1.92
2022-12-18T16:39:35.583Z,1.89
2022-12-18T16:42:05.806Z,1.93
2022-12-18T16:44:34.753Z,1.93
2022-12-18T16:47:04.561Z,1.92
2022-12-18T16:49:33.382Z,1.92
2022-12-18T16:52:05.073Z,1.96
2022-12-18T16:54:35.117Z,1.97
2022-12-18T16:57:03.481Z,1.95
2022-12-18T16:59:31.989Z,1.88
2022-12-18T17:02:00.326Z,1.94
2022-12-18T17:04:28.582Z,2.04
2022-12-18T17:06:56.701Z,1.99
2022-12-18T17:09:25.985Z,2.02
2022-12-18T17:11:56.382Z,2.03
2022-12-18T17:14:25.904Z,2.05
2022-12-18T17:17:19.820Z,2.10
2022-12-18T17:19:42.599Z,2.11
2022-12-18T17:22:10.661Z,2.03
2022-12-18T17:24:38.772Z,1.94
2022-12-18T17:27:08.849Z,1.93
2022-12-18T17:29:40.091Z,1.94
2022-12-18T17:32:11.847Z,1.98
2022-12-18T17:34:41.893Z,2.01
2022-12-18T17:37:10.353Z,2.04
2022-12-18T17:39:38.679Z,2.03
2022-12-18T17:42:10.607Z,1.99
2022-12-18T17:44:43.409Z,1.97
2022-12-18T17:47:12.838Z,1.99
2022-12-18T17:49:41.064Z,2.13
2022-12-18T17:52:09.780Z,2.11
2022-12-18T17:54:41.286Z,2.15
2022-12-18T17:57:11.622Z,2.04
2022-12-18T17:59:39.740Z,1.99
2022-12-18T18:02:08.647Z,2.06
2022-12-18T18:04:37.088Z,2.06
2022-12-18T18:07:05.184Z,2.02
2022-12-18T18:09:33.340Z,2.05
2022-12-18T18:12:18.801Z,2.09
2022-12-18T18:14:48.241Z,2.12
2022-12-18T18:17:16.366Z,2.18
2022-12-18T18:19:49.593Z,2.21
2022-12-18T18:22:18.709Z,2.38
2022-12-18T18:24:47.791Z,2.31
2022-12-18T18:27:16.713Z,2.27
2022-12-18T18:29:44.955Z,2.20
2022-12-18T18:32:14.372Z,2.15
2022-12-18T18:34:42.712Z,2.19
2022-12-18T18:37:12.132Z,2.19
2022-12-18T18:39:40.642Z,2.27
2022-12-18T18:42:08.783Z,2.33
2022-12-18T18:44:36.955Z,2.36
2022-12-18T18:47:07.665Z,2.28
2022-12-18T18:49:38.932Z,2.37
2022-12-18T18:52:08.106Z,2.38
2022-12-18T18:54:37.093Z,2.30
2022-12-18T18:57:23.392Z,2.29
2022-12-18T18:59:53.311Z,2.27
2022-12-18T19:02:21.562Z,2.28
2022-12-18T19:04:51.118Z,2.37
2022-12-18T19:07:29.448Z,2.36
2022-12-18T19:10:03.519Z,2.29
2022-12-18T19:12:52.459Z,2.28
2022-12-18T19:15:21.573Z,2.29
2022-12-18T19:17:49.867Z,2.32
2022-12-18T19:20:19.785Z,2.38
2022-12-18T19:22:54.948Z,2.38
2022-12-18T19:25:40.460Z,2.36
2022-12-18T19:28:22.132Z,2.39
2022-12-18T19:30:55.369Z,2.43
2022-12-18T19:33:45.034Z,2.43
2022-12-18T19:36:20.199Z,2.44
2022-12-18T19:38:48.883Z,2.46
2022-12-18T19:41:18.841Z,2.39
2022-12-18T19:43:48.354Z,2.40
2022-12-18T19:46:19.324Z,2.41
2022-12-18T19:48:49.177Z,2.45
2022-12-18T19:51:22.312Z,2.61
2022-12-18T19:53:57.856Z,2.49
2022-12-18T19:56:30.899Z,2.49
2022-12-18T19:58:59.526Z,2.56
2022-12-18T20:01:29.224Z,2.52
2022-12-18T20:03:58.826Z,2.53
2022-12-18T20:06:31.484Z,2.58
2022-12-18T20:09:02.229Z,2.63
2022-12-18T20:11:31.009Z,2.62
2022-12-18T20:14:02.678Z,2.59
2022-12-18T20:16:30.952Z,2.60
2022-12-18T20:19:00.090Z,2.56
2022-12-18T20:21:29.793Z,2.62
2022-12-18T20:23:59.877Z,2.60
2022-12-18T20:26:28.530Z,2.54
2022-12-18T20:28:57.098Z,2.64
2022-12-18T20:31:26.937Z,2.70
2022-12-18T20:34:00.340Z,2.72
2022-12-18T20:36:33.024Z,2.63
2022-12-18T20:39:03.852Z,2.58
2022-12-18T20:41:33.518Z,2.71
2022-12-18T20:44:18.004Z,2.68
2022-12-18T20:46:54.385Z,2.72
2022-12-18T20:49:23.684Z,3.05
2022-12-18T20:51:56.331Z,3.58
2022-12-18T20:54:28.159Z,3.94
2022-12-18T20:56:56.976Z,4.27
2022-12-18T20:59:26.160Z,4.45
2022-12-18T21:01:54.705Z,4.67
2022-12-18T21:04:23.391Z,4.53
2022-12-18T21:07:01.902Z,4.34
2022-12-18T21:09:37.457Z,4.14
2022-12-18T21:12:29.729Z,4.02
2022-12-18T21:15:02.390Z,3.85
2022-12-18T21:17:30.515Z,3.68
2022-12-18T21:20:02.846Z,3.70
2022-12-18T21:22:32.505Z,3.61
2022-12-18T21:25:00.554Z,3.53
2022-12-18T21:27:28.663Z,3.51
2022-12-18T21:29:56.808Z,3.49
2022-12-18T21:32:25.005Z,3.36
2022-12-18T21:34:57.202Z,3.35
2022-12-18T21:37:25.245Z,3.45
2022-12-18T21:39:54.719Z,3.35
2022-12-18T21:42:40.263Z,3.33
2022-12-18T21:45:12.096Z,3.37
2022-12-18T21:47:40.158Z,3.35
2022-12-18T21:50:09.080Z,3.32
2022-12-18T21:52:37.548Z,3.33
2022-12-18T21:55:10.165Z,3.33
2022-12-18T21:57:42.485Z,3.28
2022-12-18T22:00:18.654Z,3.37
2022-12-18T22:02:59.926Z,3.32
2022-12-18T22:05:36.314Z,3.25
2022-12-18T22:08:04.571Z,3.30
2022-12-18T22:10:34.708Z,3.26
2022-12-18T22:13:02.915Z,3.30
2022-12-18T22:15:31.106Z,3.30
2022-12-18T22:17:59.762Z,3.32
2022-12-18T22:20:29.815Z,3.21
2022-12-18T22:22:58.558Z,3.24
2022-12-18T22:25:26.801Z,3.24
2022-12-18T22:28:13.599Z,3.32
2022-12-18T22:30:41.770Z,3.22
2022-12-18T22:33:09.877Z,3.27
2022-12-18T22:35:37.963Z,3.37
2022-12-18T22:38:06.564Z,3.40
2022-12-18T22:40:34.865Z,3.38
2022-12-18T22:43:04.536Z,3.38
2022-12-18T22:45:32.673Z,3.31
2022-12-18T22:48:03.743Z,3.31
2022-12-18T22:50:33.620Z,3.44
2022-12-18T22:53:01.677Z,3.38
2022-12-18T22:55:29.742Z,3.43
2022-12-18T22:57:57.847Z,3.45
2022-12-18T23:00:27.591Z,3.45
2022-12-18T23:03:00.446Z,3.41
2022-12-18T23:05:31.107Z,3.37
2022-12-18T23:08:00.045Z,3.37
2022-12-18T23:10:54.038Z,3.54
2022-12-18T23:13:22.147Z,3.55
2022-12-18T23:15:51.605Z,3.57
2022-12-18T23:18:19.679Z,3.60
2022-12-18T23:20:48.417Z,3.64
2022-12-18T23:23:16.959Z,3.65
2022-12-18T23:25:45.074Z,3.63
2022-12-18T23:28:14.583Z,3.67
2022-12-18T23:30:42.631Z,3.62
2022-12-18T23:33:12.005Z,3.61
2022-12-18T23:35:40.445Z,3.67
2022-12-18T23:38:08.496Z,3.68
2022-12-18T23:40:36.565Z,3.65
2022-12-18T23:43:04.648Z,3.66
2022-12-18T23:45:32.665Z,3.68
2022-12-18T23:48:00.806Z,3.78
2022-12-18T23:50:30.377Z,3.72
2022-12-18T23:53:05.118Z,3.57
2022-12-18T23:55:45.568Z,3.68
2022-12-18T23:58:19.849Z,3.67
